sensor_id;sensor_type;location;lat;lon;timestamp;P1;durP1;ratioP1;P2;durP2;ratioP2
11173;SDS011;5643;50.856;12.088;2023-04-24T00:01:22;0.60;;;0.60;;
11173;SDS011;5643;50.856;12.088;2023-04-24T00:03:50;0.70;;;0.70;;
11173;SDS011;5643;50.856;12.088;2023-04-24T00:06:19;0.83;;;0.60;;
11173;SDS011;5643;50.856;12.088;2023-04-24T00:08:46;0.60;;;0.60;;
11173;SDS011;5643;50.856;12.088;2023-04-24T00:11:14;0.60;;;0.60;;
11173;SDS011;5643;50.856;12.088;2023-04-24T00:13:41;0.87;;;0.70;;
11173;SDS011;5643;50.856;12.088;2023-04-24T00:16:09;1.13;;;0.60;;
11173;SDS011;5643;50.856;12.088;2023-04-24T00:18:36;1.10;;;0.70;;
11173;SDS011;5643;50.856;12.088;2023-04-24T00:21:04;0.80;;;0.70;;
11173;SDS011;5643;50.856;12.088;2023-04-24T00:23:33;0.90;;;0.60;;
11173;SDS011;5643;50.856;12.088;2023-04-24T00:26:00;0.70;;;0.70;;
11173;SDS011;5643;50.856;12.088;2023-04-24T00:28:28;0.87;;;0.70;;
11173;SDS011;5643;50.856;12.088;2023-04-24T00:30:57;0.60;;;0.60;;
11173;SDS011;5643;50.856;12.088;2023-04-24T00:33:24;0.50;;;0.50;;
11173;SDS011;5643;50.856;12.088;2023-04-24T00:35:51;0.50;;;0.50;;
11173;SDS011;5643;50.856;12.088;2023-04-24T00:38:19;0.50;;;0.50;;
11173;SDS011;5643;50.856;12.088;2023-04-24T00:40:49;0.60;;;0.60;;
11173;SDS011;5643;50.856;12.088;2023-04-24T00:43:17;0.80;;;0.60;;
11173;SDS011;5643;50.856;12.088;2023-04-24T00:45:44;1.10;;;0.40;;
11173;SDS011;5643;50.856;12.088;2023-04-24T00:48:12;0.60;;;0.60;;
11173;SDS011;5643;50.856;12.088;2023-04-24T00:50:40;1.27;;;0.47;;
11173;SDS011;5643;50.856;12.088;2023-04-24T00:53:07;2.50;;;0.60;;
11173;SDS011;5643;50.856;12.088;2023-04-24T00:55:35;0.50;;;0.50;;
11173;SDS011;5643;50.856;12.088;2023-04-24T00:58:05;0.57;;;0.50;;
11173;SDS011;5643;50.856;12.088;2023-04-24T01:00:33;0.57;;;0.50;;
11173;SDS011;5643;50.856;12.088;2023-04-24T01:03:02;0.30;;;0.30;;
11173;SDS011;5643;50.856;12.088;2023-04-24T01:05:31;0.80;;;0.43;;
11173;SDS011;5643;50.856;12.088;2023-04-24T01:07:59;0.57;;;0.50;;
11173;SDS011;5643;50.856;12.088;2023-04-24T01:10:27;0.50;;;0.50;;
11173;SDS011;5643;50.856;12.088;2023-04-24T01:12:54;0.50;;;0.50;;
11173;SDS011;5643;50.856;12.088;2023-04-24T01:15:24;0.40;;;0.40;;
11173;SDS011;5643;50.856;12.088;2023-04-24T01:17:51;0.57;;;0.57;;
11173;SDS011;5643;50.856;12.088;2023-04-24T01:20:19;0.40;;;0.40;;
11173;SDS011;5643;50.856;12.088;2023-04-24T01:22:51;0.57;;;0.57;;
11173;SDS011;5643;50.856;12.088;2023-04-24T01:25:19;0.87;;;0.47;;
11173;SDS011;5643;50.856;12.088;2023-04-24T01:27:46;0.60;;;0.60;;
11173;SDS011;5643;50.856;12.088;2023-04-24T01:30:14;1.40;;;0.70;;
11173;SDS011;5643;50.856;12.088;2023-04-24T01:32:42;0.50;;;0.50;;
11173;SDS011;5643;50.856;12.088;2023-04-24T01:35:10;0.40;;;0.40;;
11173;SDS011;5643;50.856;12.088;2023-04-24T01:37:37;0.60;;;0.60;;
11173;SDS011;5643;50.856;12.088;2023-04-24T01:40:07;0.50;;;0.50;;
11173;SDS011;5643;50.856;12.088;2023-04-24T01:42:34;0.60;;;0.60;;
11173;SDS011;5643;50.856;12.088;2023-04-24T01:45:02;0.63;;;0.50;;
11173;SDS011;5643;50.856;12.088;2023-04-24T01:47:31;0.50;;;0.50;;
11173;SDS011;5643;50.856;12.088;2023-04-24T01:49:59;0.57;;;0.57;;
11173;SDS011;5643;50.856;12.088;2023-04-24T01:52:26;0.73;;;0.40;;
11173;SDS011;5643;50.856;12.088;2023-04-24T01:54:56;0.40;;;0.40;;
11173;SDS011;5643;50.856;12.088;2023-04-24T01:57:30;0.40;;;0.40;;
11173;SDS011;5643;50.856;12.088;2023-04-24T01:59:58;0.50;;;0.50;;
11173;SDS011;5643;50.856;12.088;2023-04-24T02:02:25;0.40;;;0.40;;
11173;SDS011;5643;50.856;12.088;2023-04-24T02:04:53;0.50;;;0.50;;
11173;SDS011;5643;50.856;12.088;2023-04-24T02:07:20;0.50;;;0.50;;
11173;SDS011;5643;50.856;12.088;2023-04-24T02:09:47;0.53;;;0.50;;
11173;SDS011;5643;50.856;12.088;2023-04-24T02:12:15;0.40;;;0.40;;
11173;SDS011;5643;50.856;12.088;2023-04-24T02:14:44;0.57;;;0.57;;
11173;SDS011;5643;50.856;12.088;2023-04-24T02:17:12;0.70;;;0.70;;
11173;SDS011;5643;50.856;12.088;2023-04-24T02:19:41;0.40;;;0.40;;
11173;SDS011;5643;50.856;12.088;2023-04-24T02:22:08;0.50;;;0.50;;
11173;SDS011;5643;50.856;12.088;2023-04-24T02:24:36;0.50;;;0.50;;
11173;SDS011;5643;50.856;12.088;2023-04-24T02:27:04;0.40;;;0.40;;
11173;SDS011;5643;50.856;12.088;2023-04-24T02:29:31;0.30;;;0.30;;
11173;SDS011;5643;50.856;12.088;2023-04-24T02:32:00;0.40;;;0.40;;
11173;SDS011;5643;50.856;12.088;2023-04-24T02:34:28;0.43;;;0.43;;
11173;SDS011;5643;50.856;12.088;2023-04-24T02:36:55;0.73;;;0.43;;
11173;SDS011;5643;50.856;12.088;2023-04-24T02:39:23;0.53;;;0.53;;
11173;SDS011;5643;50.856;12.088;2023-04-24T02:41:50;0.50;;;0.50;;
11173;SDS011;5643;50.856;12.088;2023-04-24T02:44:18;0.50;;;0.50;;
11173;SDS011;5643;50.856;12.088;2023-04-24T02:46:45;0.70;;;0.60;;
11173;SDS011;5643;50.856;12.088;2023-04-24T02:49:14;0.40;;;0.40;;
11173;SDS011;5643;50.856;12.088;2023-04-24T02:51:41;0.40;;;0.40;;
11173;SDS011;5643;50.856;12.088;2023-04-24T02:54:09;0.60;;;0.60;;
11173;SDS011;5643;50.856;12.088;2023-04-24T03:57:33;1.43;;;1.03;;
11173;SDS011;5643;50.856;12.088;2023-04-24T04:00:00;0.70;;;0.70;;
11173;SDS011;5643;50.856;12.088;2023-04-24T04:02:30;0.60;;;0.60;;
11173;SDS011;5643;50.856;12.088;2023-04-24T04:04:57;0.67;;;0.67;;
11173;SDS011;5643;50.856;12.088;2023-04-24T04:07:25;0.93;;;0.90;;
11173;SDS011;5643;50.856;12.088;2023-04-24T04:09:52;0.70;;;0.70;;
11173;SDS011;5643;50.856;12.088;2023-04-24T04:12:20;0.70;;;0.70;;
11173;SDS011;5643;50.856;12.088;2023-04-24T04:14:49;0.70;;;0.70;;
11173;SDS011;5643;50.856;12.088;2023-04-24T04:17:16;0.70;;;0.70;;
11173;SDS011;5643;50.856;12.088;2023-04-24T04:19:44;1.00;;;0.90;;
11173;SDS011;5643;50.856;12.088;2023-04-24T04:22:11;0.70;;;0.70;;
11173;SDS011;5643;50.856;12.088;2023-04-24T04:24:39;1.47;;;0.60;;
11173;SDS011;5643;50.856;12.088;2023-04-24T04:27:06;0.60;;;0.60;;
11173;SDS011;5643;50.856;12.088;2023-04-24T04:29:34;0.70;;;0.60;;
11173;SDS011;5643;50.856;12.088;2023-04-24T04:32:03;0.60;;;0.60;;
11173;SDS011;5643;50.856;12.088;2023-04-24T04:34:31;1.03;;;0.50;;
11173;SDS011;5643;50.856;12.088;2023-04-24T04:36:59;0.63;;;0.63;;
11173;SDS011;5643;50.856;12.088;2023-04-24T04:39:28;0.50;;;0.50;;
11173;SDS011;5643;50.856;12.088;2023-04-24T04:41:56;0.60;;;0.60;;
11173;SDS011;5643;50.856;12.088;2023-04-24T04:44:24;0.40;;;0.40;;
11173;SDS011;5643;50.856;12.088;2023-04-24T04:46:53;0.50;;;0.50;;
11173;SDS011;5643;50.856;12.088;2023-04-24T04:49:23;0.60;;;0.60;;
11173;SDS011;5643;50.856;12.088;2023-04-24T04:54:50;0.77;;;0.70;;
11173;SDS011;5643;50.856;12.088;2023-04-24T04:57:18;0.83;;;0.60;;
11173;SDS011;5643;50.856;12.088;2023-04-24T04:59:56;0.63;;;0.63;;
11173;SDS011;5643;50.856;12.088;2023-04-24T05:02:23;0.60;;;0.60;;
11173;SDS011;5643;50.856;12.088;2023-04-24T05:04:52;0.80;;;0.50;;
11173;SDS011;5643;50.856;12.088;2023-04-24T05:07:20;0.57;;;0.57;;
11173;SDS011;5643;50.856;12.088;2023-04-24T05:09:47;0.60;;;0.60;;
11173;SDS011;5643;50.856;12.088;2023-04-24T05:12:15;0.60;;;0.60;;
11173;SDS011;5643;50.856;12.088;2023-04-24T05:14:42;0.60;;;0.50;;
11173;SDS011;5643;50.856;12.088;2023-04-24T05:17:10;0.57;;;0.57;;
11173;SDS011;5643;50.856;12.088;2023-04-24T05:19:37;0.50;;;0.50;;
11173;SDS011;5643;50.856;12.088;2023-04-24T05:22:06;0.50;;;0.50;;
11173;SDS011;5643;50.856;12.088;2023-04-24T05:24:35;0.70;;;0.70;;
11173;SDS011;5643;50.856;12.088;2023-04-24T05:27:03;0.50;;;0.50;;
11173;SDS011;5643;50.856;12.088;2023-04-24T05:29:31;0.60;;;0.60;;
11173;SDS011;5643;50.856;12.088;2023-04-24T05:31:59;0.60;;;0.60;;
11173;SDS011;5643;50.856;12.088;2023-04-24T05:34:27;0.60;;;0.60;;
11173;SDS011;5643;50.856;12.088;2023-04-24T05:36:54;0.60;;;0.60;;
11173;SDS011;5643;50.856;12.088;2023-04-24T05:39:23;0.60;;;0.60;;
11173;SDS011;5643;50.856;12.088;2023-04-24T05:41:52;0.70;;;0.70;;
11173;SDS011;5643;50.856;12.088;2023-04-24T05:44:19;0.60;;;0.60;;
11173;SDS011;5643;50.856;12.088;2023-04-24T05:46:46;0.80;;;0.80;;
11173;SDS011;5643;50.856;12.088;2023-04-24T05:49:13;0.70;;;0.70;;
11173;SDS011;5643;50.856;12.088;2023-04-24T05:51:40;0.47;;;0.47;;
11173;SDS011;5643;50.856;12.088;2023-04-24T05:54:08;0.50;;;0.50;;
11173;SDS011;5643;50.856;12.088;2023-04-24T05:56:39;0.50;;;0.50;;
11173;SDS011;5643;50.856;12.088;2023-04-24T08:59:55;0.30;;;0.30;;
11173;SDS011;5643;50.856;12.088;2023-04-24T09:02:23;0.20;;;0.20;;
11173;SDS011;5643;50.856;12.088;2023-04-24T09:04:50;0.20;;;0.20;;
11173;SDS011;5643;50.856;12.088;2023-04-24T09:07:19;0.20;;;0.20;;
11173;SDS011;5643;50.856;12.088;2023-04-24T09:09:47;0.60;;;0.30;;
11173;SDS011;5643;50.856;12.088;2023-04-24T09:12:15;0.20;;;0.20;;
11173;SDS011;5643;50.856;12.088;2023-04-24T09:14:43;0.30;;;0.30;;
11173;SDS011;5643;50.856;12.088;2023-04-24T09:17:12;0.20;;;0.20;;
11173;SDS011;5643;50.856;12.088;2023-04-24T09:19:40;0.30;;;0.30;;
11173;SDS011;5643;50.856;12.088;2023-04-24T09:22:09;1.33;;;0.43;;
11173;SDS011;5643;50.856;12.088;2023-04-24T09:24:36;0.40;;;0.40;;
11173;SDS011;5643;50.856;12.088;2023-04-24T09:27:03;0.53;;;0.50;;
11173;SDS011;5643;50.856;12.088;2023-04-24T09:29:31;0.40;;;0.40;;
11173;SDS011;5643;50.856;12.088;2023-04-24T09:31:58;0.67;;;0.63;;
11173;SDS011;5643;50.856;12.088;2023-04-24T09:34:27;1.07;;;0.97;;
11173;SDS011;5643;50.856;12.088;2023-04-24T09:40:11;0.40;;;0.37;;
11173;SDS011;5643;50.856;12.088;2023-04-24T09:42:39;0.40;;;0.40;;
11173;SDS011;5643;50.856;12.088;2023-04-24T09:45:11;0.60;;;0.60;;
11173;SDS011;5643;50.856;12.088;2023-04-24T09:47:41;1.10;;;0.70;;
11173;SDS011;5643;50.856;12.088;2023-04-24T09:50:25;0.60;;;0.40;;
11173;SDS011;5643;50.856;12.088;2023-04-24T09:52:56;0.40;;;0.40;;
11173;SDS011;5643;50.856;12.088;2023-04-24T09:55:25;0.40;;;0.40;;
11173;SDS011;5643;50.856;12.088;2023-04-24T09:57:53;0.30;;;0.30;;
11173;SDS011;5643;50.856;12.088;2023-04-24T10:00:22;0.40;;;0.40;;
11173;SDS011;5643;50.856;12.088;2023-04-24T10:02:54;0.30;;;0.30;;
11173;SDS011;5643;50.856;12.088;2023-04-24T10:05:25;0.40;;;0.40;;
11173;SDS011;5643;50.856;12.088;2023-04-24T10:07:59;0.63;;;0.40;;
11173;SDS011;5643;50.856;12.088;2023-04-24T10:10:28;0.40;;;0.40;;
11173;SDS011;5643;50.856;12.088;2023-04-24T10:12:55;0.40;;;0.40;;
11173;SDS011;5643;50.856;12.088;2023-04-24T10:15:24;0.40;;;0.40;;
11173;SDS011;5643;50.856;12.088;2023-04-24T10:17:53;0.40;;;0.40;;
11173;SDS011;5643;50.856;12.088;2023-04-24T10:20:23;0.57;;;0.40;;
11173;SDS011;5643;50.856;12.088;2023-04-24T10:22:54;0.33;;;0.33;;
11173;SDS011;5643;50.856;12.088;2023-04-24T10:25:25;0.37;;;0.37;;
11173;SDS011;5643;50.856;12.088;2023-04-24T10:27:53;0.50;;;0.50;;
11173;SDS011;5643;50.856;12.088;2023-04-24T10:30:23;0.50;;;0.50;;
11173;SDS011;5643;50.856;12.088;2023-04-24T10:32:51;0.30;;;0.30;;
11173;SDS011;5643;50.856;12.088;2023-04-24T10:35:20;0.40;;;0.40;;
11173;SDS011;5643;50.856;12.088;2023-04-24T10:37:50;0.70;;;0.40;;
11173;SDS011;5643;50.856;12.088;2023-04-24T10:47:29;0.70;;;0.50;;
11173;SDS011;5643;50.856;12.088;2023-04-24T10:49:58;0.60;;;0.50;;
11173;SDS011;5643;50.856;12.088;2023-04-24T10:55:16;0.30;;;0.30;;
11173;SDS011;5643;50.856;12.088;2023-04-24T11:35:15;0.80;;;0.80;;
11173;SDS011;5643;50.856;12.088;2023-04-24T11:37:43;1.17;;;1.03;;
11173;SDS011;5643;50.856;12.088;2023-04-24T11:40:13;0.60;;;0.60;;
11173;SDS011;5643;50.856;12.088;2023-04-24T11:42:44;0.60;;;0.60;;
11173;SDS011;5643;50.856;12.088;2023-04-24T11:45:14;1.27;;;0.60;;
11173;SDS011;5643;50.856;12.088;2023-04-24T11:47:46;0.30;;;0.30;;
11173;SDS011;5643;50.856;12.088;2023-04-24T11:50:16;0.40;;;0.40;;
11173;SDS011;5643;50.856;12.088;2023-04-24T11:52:44;1.20;;;0.60;;
11173;SDS011;5643;50.856;12.088;2023-04-24T11:55:22;0.53;;;0.50;;
11173;SDS011;5643;50.856;12.088;2023-04-24T11:57:53;0.93;;;0.50;;
11173;SDS011;5643;50.856;12.088;2023-04-24T12:00:23;0.50;;;0.50;;
11173;SDS011;5643;50.856;12.088;2023-04-24T12:02:51;0.43;;;0.43;;
11173;SDS011;5643;50.856;12.088;2023-04-24T12:05:24;0.67;;;0.50;;
11173;SDS011;5643;50.856;12.088;2023-04-24T12:07:56;1.53;;;0.60;;
11173;SDS011;5643;50.856;12.088;2023-04-24T12:10:25;0.40;;;0.40;;
11173;SDS011;5643;50.856;12.088;2023-04-24T12:12:56;1.03;;;0.30;;
11173;SDS011;5643;50.856;12.088;2023-04-24T12:15:24;0.53;;;0.40;;
11173;SDS011;5643;50.856;12.088;2023-04-24T12:17:53;0.40;;;0.40;;
11173;SDS011;5643;50.856;12.088;2023-04-24T12:20:26;0.40;;;0.40;;
11173;SDS011;5643;50.856;12.088;2023-04-24T12:22:56;0.60;;;0.60;;
11173;SDS011;5643;50.856;12.088;2023-04-24T12:25:24;0.40;;;0.40;;
11173;SDS011;5643;50.856;12.088;2023-04-24T12:27:53;0.50;;;0.50;;
11173;SDS011;5643;50.856;12.088;2023-04-24T12:30:26;1.13;;;0.50;;
11173;SDS011;5643;50.856;12.088;2023-04-24T12:33:08;0.30;;;0.30;;
11173;SDS011;5643;50.856;12.088;2023-04-24T12:39:27;4.53;;;1.30;;
11173;SDS011;5643;50.856;12.088;2023-04-24T12:41:58;0.50;;;0.50;;
11173;SDS011;5643;50.856;12.088;2023-04-24T12:44:30;0.77;;;0.43;;
11173;SDS011;5643;50.856;12.088;2023-04-24T12:46:58;0.40;;;0.40;;
11173;SDS011;5643;50.856;12.088;2023-04-24T12:49:26;0.60;;;0.43;;
11173;SDS011;5643;50.856;12.088;2023-04-24T12:51:53;0.60;;;0.30;;
11173;SDS011;5643;50.856;12.088;2023-04-24T12:54:20;0.30;;;0.30;;
11173;SDS011;5643;50.856;12.088;2023-04-24T12:56:53;0.70;;;0.50;;
11173;SDS011;5643;50.856;12.088;2023-04-24T14:01:59;0.30;;;0.30;;
11173;SDS011;5643;50.856;12.088;2023-04-24T14:04:28;0.70;;;0.30;;
11173;SDS011;5643;50.856;12.088;2023-04-24T14:06:55;0.40;;;0.37;;
11173;SDS011;5643;50.856;12.088;2023-04-24T14:09:23;0.30;;;0.30;;
11173;SDS011;5643;50.856;12.088;2023-04-24T14:11:51;0.33;;;0.33;;
11173;SDS011;5643;50.856;12.088;2023-04-24T14:14:19;0.50;;;0.50;;
11173;SDS011;5643;50.856;12.088;2023-04-24T14:16:48;0.40;;;0.40;;
11173;SDS011;5643;50.856;12.088;2023-04-24T14:19:17;0.50;;;0.50;;
11173;SDS011;5643;50.856;12.088;2023-04-24T14:21:44;0.40;;;0.40;;
11173;SDS011;5643;50.856;12.088;2023-04-24T14:24:12;0.87;;;0.60;;
11173;SDS011;5643;50.856;12.088;2023-04-24T14:26:44;0.40;;;0.40;;
11173;SDS011;5643;50.856;12.088;2023-04-24T14:29:12;0.57;;;0.37;;
11173;SDS011;5643;50.856;12.088;2023-04-24T14:31:39;0.50;;;0.50;;
11173;SDS011;5643;50.856;12.088;2023-04-24T14:37:06;0.47;;;0.47;;
11173;SDS011;5643;50.856;12.088;2023-04-24T14:39:34;0.40;;;0.40;;
11173;SDS011;5643;50.856;12.088;2023-04-24T14:42:01;0.60;;;0.60;;
11173;SDS011;5643;50.856;12.088;2023-04-24T14:44:29;0.37;;;0.37;;
11173;SDS011;5643;50.856;12.088;2023-04-24T14:46:57;1.13;;;0.40;;
11173;SDS011;5643;50.856;12.088;2023-04-24T14:49:25;0.50;;;0.50;;
11173;SDS011;5643;50.856;12.088;2023-04-24T14:51:56;0.30;;;0.30;;
11173;SDS011;5643;50.856;12.088;2023-04-24T14:54:25;0.53;;;0.50;;
11173;SDS011;5643;50.856;12.088;2023-04-24T14:56:53;0.30;;;0.30;;
11173;SDS011;5643;50.856;12.088;2023-04-24T14:59:25;0.40;;;0.40;;
11173;SDS011;5643;50.856;12.088;2023-04-24T19:19:40;0.70;;;0.70;;
11173;SDS011;5643;50.856;12.088;2023-04-24T19:22:11;1.03;;;0.87;;
11173;SDS011;5643;50.856;12.088;2023-04-24T19:24:42;1.20;;;1.10;;
11173;SDS011;5643;50.856;12.088;2023-04-24T19:27:12;1.10;;;1.10;;
11173;SDS011;5643;50.856;12.088;2023-04-24T19:29:41;1.10;;;1.00;;
11173;SDS011;5643;50.856;12.088;2023-04-24T19:32:09;1.30;;;0.93;;
11173;SDS011;5643;50.856;12.088;2023-04-24T19:34:41;0.90;;;0.90;;
11173;SDS011;5643;50.856;12.088;2023-04-24T19:37:11;1.00;;;1.00;;
11173;SDS011;5643;50.856;12.088;2023-04-24T19:39:40;0.70;;;0.70;;
11173;SDS011;5643;50.856;12.088;2023-04-24T19:42:09;0.83;;;0.80;;
11173;SDS011;5643;50.856;12.088;2023-04-24T19:44:38;1.13;;;1.03;;
11173;SDS011;5643;50.856;12.088;2023-04-24T19:47:08;1.30;;;1.20;;
11173;SDS011;5643;50.856;12.088;2023-04-24T19:49:41;1.10;;;1.10;;
11173;SDS011;5643;50.856;12.088;2023-04-24T19:52:16;1.60;;;1.50;;
11173;SDS011;5643;50.856;12.088;2023-04-24T19:54:47;1.40;;;1.30;;
11173;SDS011;5643;50.856;12.088;2023-04-24T19:57:21;1.20;;;1.20;;
11173;SDS011;5643;50.856;12.088;2023-04-24T19:59:49;1.27;;;1.20;;
11173;SDS011;5643;50.856;12.088;2023-04-24T20:02:20;1.33;;;1.10;;
11173;SDS011;5643;50.856;12.088;2023-04-24T20:04:49;0.87;;;0.80;;
11173;SDS011;5643;50.856;12.088;2023-04-24T20:07:22;1.70;;;1.30;;
11173;SDS011;5643;50.856;12.088;2023-04-24T20:09:53;1.13;;;0.90;;
11173;SDS011;5643;50.856;12.088;2023-04-24T20:12:24;0.70;;;0.70;;
11173;SDS011;5643;50.856;12.088;2023-04-24T20:14:55;1.00;;;1.00;;
11173;SDS011;5643;50.856;12.088;2023-04-24T20:17:30;1.10;;;1.00;;
11173;SDS011;5643;50.856;12.088;2023-04-24T22:20:07;1.47;;;0.80;;
11173;SDS011;5643;50.856;12.088;2023-04-24T22:22:34;0.93;;;0.90;;
11173;SDS011;5643;50.856;12.088;2023-04-24T22:25:02;0.90;;;0.90;;
11173;SDS011;5643;50.856;12.088;2023-04-24T22:27:29;1.07;;;0.97;;
11173;SDS011;5643;50.856;12.088;2023-04-24T22:29:59;1.03;;;0.97;;
11173;SDS011;5643;50.856;12.088;2023-04-24T22:32:47;1.10;;;1.00;;
11173;SDS011;5643;50.856;12.088;2023-04-24T22:36:18;0.80;;;0.80;;
11173;SDS011;5643;50.856;12.088;2023-04-24T22:39:03;1.47;;;1.10;;
11173;SDS011;5643;50.856;12.088;2023-04-24T22:41:31;1.10;;;1.00;;
11173;SDS011;5643;50.856;12.088;2023-04-24T22:43:59;0.90;;;0.90;;
11173;SDS011;5643;50.856;12.088;2023-04-24T22:46:26;1.07;;;1.07;;
11173;SDS011;5643;50.856;12.088;2023-04-24T22:48:55;1.00;;;0.90;;
11173;SDS011;5643;50.856;12.088;2023-04-24T22:51:25;0.90;;;0.90;;
11173;SDS011;5643;50.856;12.088;2023-04-24T22:53:53;1.20;;;1.10;;
11173;SDS011;5643;50.856;12.088;2023-04-24T22:56:21;0.90;;;0.80;;
11173;SDS011;5643;50.856;12.088;2023-04-24T22:58:48;0.73;;;0.73;;
11173;SDS011;5643;50.856;12.088;2023-04-24T23:01:16;0.80;;;0.80;;
11173;SDS011;5643;50.856;12.088;2023-04-24T23:03:43;0.83;;;0.83;;
11173;SDS011;5643;50.856;12.088;2023-04-24T23:06:11;1.03;;;1.03;;
11173;SDS011;5643;50.856;12.088;2023-04-24T23:08:45;0.97;;;0.97;;
11173;SDS011;5643;50.856;12.088;2023-04-24T23:11:12;1.10;;;1.00;;
11173;SDS011;5643;50.856;12.088;2023-04-24T23:13:39;1.13;;;1.03;;
11173;SDS011;5643;50.856;12.088;2023-04-24T23:16:10;0.90;;;0.90;;
11173;SDS011;5643;50.856;12.088;2023-04-24T23:18:37;1.00;;;0.90;;
